Kezdőlap
METAR-TAF:

METAR-TAF

Repülőterek :

Chamberlain Municipal Airport

Chamberlain, Dél-Dakota, Amerikai Egyesült Államok

földrajzi szélesség: 43-46-00N, földrajzi hosszúság: 099-19-06W, magasság: 516 m

Jelenlegi meteorológiai megfigyelések

A jelentés 31 perccel ezelõtt készült, 04:15 UTC
Szélcsend
Hőmérséklet 23°C
Páratartalom 61%
Légköri nyomás 1007 hPa
Látótávolság: 16.1 km
Derült ég

METAR: K9V9 130415Z AUTO 00000KT 10SM CLR 23/15 A2973 RMK AO2 T02260148

Idő: 23:46 (04:46 UTC)


TAF: hiányzik

Meteorológiai megfigyelések és előrejelzések több, mint 4000 repülőtéren (METAR és TAF jelentéseket).

A térképen piros és sárga pontok jelzik az elérhető meteorológiai állomásokat.

Mozgassa az egeret a pont fölött, hogy megjelenjen az állomás neve.

Azután kattintson az időjárási megfigyelések és előrejelzések megtekintéséhez.

A térkép megváltoztatása: kattintson a fekete keresztel jelölt zöld gombra ráközelítéshez, a vonallal jelölt zöld gombra távolításhoz, vagy a zöld nyilakra a szomszédos térképek eléréséhez.


METAR-TAF: